createdAt,value
2023-01-15T00:02:07.733Z,92.21
2023-01-15T00:04:34.637Z,91.95
2023-01-15T00:07:01.372Z,92.15
2023-01-15T00:09:28.394Z,91.94
2023-01-15T00:11:55.108Z,91.98
2023-01-15T00:14:22.172Z,91.99
2023-01-15T00:16:52.712Z,91.71
2023-01-15T00:19:19.515Z,91.82
2023-01-15T00:21:46.493Z,91.79
2023-01-15T00:24:31.770Z,91.30
2023-01-15T00:27:17.119Z,91.68
2023-01-15T00:29:46.492Z,92.05
2023-01-15T00:32:13.330Z,92.06
2023-01-15T00:34:40.086Z,91.96
2023-01-15T00:37:06.885Z,91.79
2023-01-15T00:39:34.675Z,91.54
2023-01-15T00:42:01.534Z,91.91
2023-01-15T00:44:28.562Z,91.53
2023-01-15T00:46:55.403Z,91.92
2023-01-15T00:49:22.432Z,91.48
2023-01-15T00:51:50.062Z,92.20
2023-01-15T00:54:17.568Z,91.76
2023-01-15T00:56:44.430Z,91.88
2023-01-15T00:59:11.901Z,91.74
2023-01-15T01:01:39.472Z,91.77
2023-01-15T01:04:06.561Z,92.07
2023-01-15T01:06:35.139Z,92.04
2023-01-15T01:09:02.186Z,91.69
2023-01-15T01:11:34.131Z,91.83
2023-01-15T01:14:02.383Z,91.80
2023-01-15T01:16:37.514Z,91.66
2023-01-15T01:19:08.743Z,92.12
2023-01-15T01:21:37.855Z,91.53
2023-01-15T01:24:05.622Z,92.16
2023-01-15T01:26:32.984Z,91.98
2023-01-15T01:29:00.460Z,92.56
2023-01-15T01:31:27.325Z,92.09
2023-01-15T01:33:55.862Z,92.82
2023-01-15T01:36:29.810Z,92.53
2023-01-15T01:38:56.842Z,92.71
2023-01-15T01:41:24.091Z,92.85
2023-01-15T01:44:01.902Z,92.93
2023-01-15T01:46:33.578Z,93.49
2023-01-15T01:49:04.386Z,93.01
2023-01-15T01:51:37.915Z,93.00
2023-01-15T01:54:04.987Z,93.19
2023-01-15T01:56:36.032Z,93.28
2023-01-15T01:59:05.189Z,93.43
2023-01-15T02:01:32.073Z,93.04
2023-01-15T02:03:59.388Z,93.35
2023-01-15T02:06:28.200Z,93.33
2023-01-15T02:08:55.074Z,93.47
2023-01-15T02:11:24.656Z,93.38
2023-01-15T02:14:12.516Z,93.88
2023-01-15T02:16:53.609Z,93.68
2023-01-15T02:19:45.454Z,93.44
2023-01-15T02:22:41.516Z,93.92
2023-01-15T02:25:23.993Z,94.05
2023-01-15T02:27:57.933Z,94.59
2023-01-15T02:30:37.624Z,94.06
2023-01-15T02:33:09.089Z,94.44
2023-01-15T02:36:08.710Z,94.02
2023-01-15T02:38:43.256Z,94.92
2023-01-15T02:41:17.935Z,94.43
2023-01-15T02:43:53.867Z,94.64
2023-01-15T02:46:29.112Z,94.69
2023-01-15T02:48:58.087Z,94.45
2023-01-15T02:51:36.457Z,94.23
2023-01-15T02:54:09.141Z,94.65
2023-01-15T02:56:38.276Z,94.50
2023-01-15T02:59:10.699Z,94.76
2023-01-15T03:01:53.715Z,95.03
2023-01-15T03:04:43.591Z,94.62
2023-01-15T03:07:14.695Z,94.92
2023-01-15T03:09:42.753Z,94.75
2023-01-15T03:12:17.332Z,95.36
2023-01-15T03:15:11.586Z,94.94
2023-01-15T03:17:54.016Z,95.43
2023-01-15T03:20:26.388Z,95.29
2023-01-15T03:23:00.623Z,95.62
2023-01-15T03:25:34.505Z,95.51
2023-01-15T03:28:04.325Z,95.25
2023-01-15T03:30:33.090Z,95.56
2023-01-15T03:32:59.825Z,95.36
2023-01-15T03:35:58.878Z,95.76
2023-01-15T03:38:50.890Z,95.59
2023-01-15T03:41:56.094Z,96.12
2023-01-15T03:44:45.401Z,95.43
2023-01-15T03:47:50.144Z,95.24
2023-01-15T03:50:23.383Z,95.43
2023-01-15T03:52:56.327Z,95.72
2023-01-15T03:55:37.022Z,95.36
2023-01-15T03:58:29.366Z,95.28
2023-01-15T04:01:03.382Z,95.52
2023-01-15T04:03:34.148Z,95.55
2023-01-15T04:06:03.379Z,95.34
2023-01-15T04:08:36.517Z,95.25
2023-01-15T04:11:03.824Z,95.12
2023-01-15T04:13:33.019Z,95.40
2023-01-15T04:16:01.372Z,94.93
2023-01-15T04:18:28.634Z,94.99
2023-01-15T04:20:55.736Z,94.72
2023-01-15T04:23:23.735Z,95.03
2023-01-15T04:25:50.535Z,95.00
2023-01-15T04:28:17.277Z,94.83
2023-01-15T04:30:50.012Z,95.28
2023-01-15T04:33:16.947Z,94.43
2023-01-15T04:35:44.501Z,94.50
2023-01-15T04:38:11.151Z,95.01
2023-01-15T04:40:56.373Z,94.55
2023-01-15T04:43:41.827Z,94.72
2023-01-15T04:46:08.781Z,94.71
2023-01-15T04:48:35.504Z,94.29
2023-01-15T04:51:04.331Z,94.59
2023-01-15T04:53:31.138Z,94.67
2023-01-15T04:56:02.229Z,94.87
2023-01-15T04:58:29.582Z,95.05
2023-01-15T05:00:56.972Z,94.54
2023-01-15T05:03:23.769Z,94.61
2023-01-15T05:05:50.771Z,94.44
2023-01-15T05:08:17.559Z,94.49
2023-01-15T05:10:44.535Z,94.68
2023-01-15T05:13:11.643Z,95.06
2023-01-15T05:15:40.733Z,94.88
2023-01-15T05:18:07.642Z,94.74
2023-01-15T05:20:37.609Z,94.29
2023-01-15T05:23:04.517Z,94.23
2023-01-15T05:25:31.176Z,94.25
2023-01-15T05:27:57.926Z,94.44
2023-01-15T05:30:24.934Z,94.82
2023-01-15T05:32:52.004Z,94.55
2023-01-15T05:35:18.799Z,94.30
2023-01-15T05:37:45.630Z,94.63
2023-01-15T05:40:12.895Z,94.32
2023-01-15T05:42:39.595Z,94.75
2023-01-15T05:45:06.926Z,94.62
2023-01-15T05:47:35.815Z,94.75
2023-01-15T05:50:02.580Z,94.22
2023-01-15T05:52:29.373Z,94.76
2023-01-15T05:54:56.100Z,94.28
2023-01-15T05:57:22.816Z,94.32
2023-01-15T05:59:50.464Z,94.26
2023-01-15T06:02:17.211Z,94.33
2023-01-15T06:04:43.995Z,93.90
2023-01-15T06:07:10.932Z,94.44
2023-01-15T06:09:37.997Z,94.35
2023-01-15T06:12:05.083Z,94.20
2023-01-15T06:14:32.004Z,94.29
2023-01-15T06:16:58.778Z,94.42
2023-01-15T06:19:25.492Z,94.06
2023-01-15T06:21:52.359Z,94.03
2023-01-15T06:24:20.079Z,94.30
2023-01-15T06:26:47.299Z,93.55
2023-01-15T06:29:17.813Z,93.48
2023-01-15T06:31:45.690Z,93.95
2023-01-15T06:34:12.847Z,94.06
2023-01-15T06:36:39.783Z,93.86
2023-01-15T06:39:06.505Z,93.83
2023-01-15T06:41:51.515Z,93.62
2023-01-15T06:44:40.599Z,93.36
2023-01-15T06:47:24.215Z,93.28
2023-01-15T06:49:56.483Z,93.35
2023-01-15T06:52:28.008Z,93.27
2023-01-15T06:54:54.807Z,93.02
2023-01-15T06:57:21.827Z,92.71
2023-01-15T06:59:49.374Z,92.71
2023-01-15T07:02:18.281Z,92.64
2023-01-15T07:04:47.137Z,92.67
2023-01-15T07:07:20.424Z,92.79
2023-01-15T07:09:51.803Z,92.95
2023-01-15T07:12:19.996Z,92.47
2023-01-15T07:14:48.517Z,92.36
2023-01-15T07:17:26.290Z,92.73
2023-01-15T07:19:54.661Z,92.50
2023-01-15T07:22:21.362Z,92.24
2023-01-15T07:24:48.120Z,92.29
2023-01-15T07:27:16.502Z,92.32
2023-01-15T07:29:44.543Z,92.37
2023-01-15T07:32:12.753Z,92.40
2023-01-15T07:34:41.620Z,92.60
2023-01-15T07:37:29.022Z,92.34
2023-01-15T07:39:58.087Z,92.23
2023-01-15T07:42:43.970Z,92.32
2023-01-15T07:45:50.386Z,91.88
2023-01-15T07:48:36.796Z,92.04
2023-01-15T07:51:04.325Z,91.87
2023-01-15T07:53:35.030Z,92.13
2023-01-15T07:56:03.394Z,91.65
2023-01-15T07:58:31.096Z,91.83
2023-01-15T08:00:58.411Z,92.24
2023-01-15T08:03:28.388Z,92.07
2023-01-15T08:05:58.119Z,91.94
2023-01-15T08:08:25.907Z,91.64
2023-01-15T08:11:11.963Z,92.13
2023-01-15T08:13:57.437Z,91.46
2023-01-15T08:16:29.586Z,91.52
2023-01-15T08:18:59.117Z,92.27
2023-01-15T08:21:25.930Z,91.94
2023-01-15T08:23:54.924Z,91.78
2023-01-15T08:26:22.883Z,91.70
2023-01-15T08:28:50.124Z,91.84
2023-01-15T08:31:17.005Z,92.02
2023-01-15T08:33:44.431Z,92.41
2023-01-15T08:36:11.875Z,91.82
2023-01-15T08:38:39.101Z,91.85
2023-01-15T08:41:06.377Z,91.69
2023-01-15T08:43:36.682Z,91.34
2023-01-15T08:46:05.799Z,91.59
2023-01-15T08:48:33.495Z,91.49
2023-01-15T08:51:06.161Z,91.61
2023-01-15T08:53:34.579Z,92.20
2023-01-15T08:56:02.201Z,92.18
2023-01-15T08:58:33.836Z,91.60
2023-01-15T09:01:08.512Z,92.07
2023-01-15T09:03:36.429Z,92.17
2023-01-15T09:06:04.170Z,92.69
2023-01-15T09:08:30.991Z,92.31
2023-01-15T09:10:59.172Z,92.21
2023-01-15T09:13:27.606Z,92.38
2023-01-15T09:15:58.807Z,91.79
2023-01-15T09:18:25.684Z,91.99
2023-01-15T09:20:52.652Z,91.75
2023-01-15T09:23:19.525Z,91.40
2023-01-15T09:26:00.922Z,92.04
2023-01-15T09:28:28.964Z,92.60
2023-01-15T09:30:55.898Z,91.80
2023-01-15T09:33:23.585Z,92.26
2023-01-15T09:35:50.480Z,92.06
2023-01-15T09:38:20.422Z,92.30
2023-01-15T09:40:49.861Z,92.22
2023-01-15T09:43:30.192Z,91.87
2023-01-15T09:46:02.278Z,91.29
2023-01-15T09:48:52.351Z,91.65
2023-01-15T09:51:24.623Z,92.33
2023-01-15T09:53:54.689Z,91.81
2023-01-15T09:56:25.571Z,91.96
2023-01-15T09:58:53.710Z,91.68
2023-01-15T10:01:26.089Z,92.00
2023-01-15T10:04:03.642Z,91.91
2023-01-15T10:06:41.767Z,91.59
2023-01-15T10:09:23.452Z,91.78
2023-01-15T10:12:16.797Z,91.51
2023-01-15T10:14:52.496Z,91.86
2023-01-15T10:17:28.735Z,91.88
2023-01-15T10:19:59.212Z,91.78
2023-01-15T10:22:29.024Z,91.62
2023-01-15T10:24:58.400Z,92.15
2023-01-15T10:27:30.070Z,92.23
2023-01-15T10:30:41.853Z,92.08
2023-01-15T10:33:42.417Z,91.79
2023-01-15T10:36:15.344Z,91.43
2023-01-15T10:38:50.744Z,91.48
2023-01-15T10:41:27.684Z,91.94
2023-01-15T10:44:05.371Z,92.02
2023-01-15T10:46:38.374Z,91.94
2023-01-15T10:49:13.699Z,92.48
2023-01-15T10:51:54.003Z,92.43
2023-01-15T10:54:26.907Z,91.82
2023-01-15T10:57:02.208Z,91.97
2023-01-15T10:59:44.167Z,92.37
2023-01-15T11:02:18.841Z,92.35
2023-01-15T11:04:45.829Z,92.08
2023-01-15T11:07:14.035Z,91.57
2023-01-15T11:09:41.995Z,92.14
2023-01-15T11:12:08.844Z,92.04
2023-01-15T11:15:00.305Z,92.26
2023-01-15T11:18:16.230Z,91.96
2023-01-15T11:20:45.211Z,91.84
2023-01-15T11:23:18.301Z,91.63
2023-01-15T11:25:59.763Z,91.44
2023-01-15T11:28:43.296Z,92.03
2023-01-15T11:31:11.931Z,91.47
2023-01-15T11:33:39.744Z,91.50
2023-01-15T11:36:19.541Z,91.67
2023-01-15T11:38:50.991Z,91.74
2023-01-15T11:41:45.669Z,91.89
2023-01-15T11:44:32.731Z,92.10
2023-01-15T11:47:18.527Z,91.54
2023-01-15T11:50:14.218Z,92.10
2023-01-15T11:52:55.638Z,91.65
2023-01-15T11:55:26.432Z,92.18
2023-01-15T11:57:57.106Z,92.48
2023-01-15T12:00:25.813Z,92.05
2023-01-15T12:02:56.591Z,92.05
2023-01-15T12:05:27.145Z,91.60
2023-01-15T12:07:57.490Z,91.47
2023-01-15T12:10:56.117Z,91.79
2023-01-15T12:13:45.339Z,91.51
2023-01-15T12:16:41.346Z,91.90
2023-01-15T12:19:26.504Z,91.60
2023-01-15T12:22:14.601Z,91.69
2023-01-15T12:25:02.749Z,91.89
2023-01-15T12:27:41.550Z,91.95
2023-01-15T12:30:21.581Z,92.26
2023-01-15T12:32:56.721Z,92.38
2023-01-15T12:35:32.160Z,92.16
2023-01-15T12:38:16.754Z,91.92
2023-01-15T12:40:48.056Z,92.45
2023-01-15T12:43:41.744Z,92.54
2023-01-15T12:46:14.741Z,91.44
2023-01-15T12:49:12.963Z,91.67
2023-01-15T12:51:51.777Z,91.49
2023-01-15T12:54:24.289Z,91.40
2023-01-15T12:57:09.861Z,91.58
2023-01-15T12:59:48.460Z,91.33
2023-01-15T13:02:44.266Z,91.56
2023-01-15T13:05:19.429Z,91.64
2023-01-15T13:08:10.591Z,91.17
2023-01-15T13:10:40.000Z,91.19
2023-01-15T13:13:18.831Z,91.21
2023-01-15T13:16:00.721Z,90.98
2023-01-15T13:19:07.374Z,90.41
2023-01-15T13:21:36.914Z,90.17
2023-01-15T13:24:31.409Z,91.10
2023-01-15T13:27:14.237Z,90.33
2023-01-15T13:30:02.755Z,90.28
2023-01-15T13:32:35.264Z,90.50
2023-01-15T13:35:19.958Z,90.37
2023-01-15T13:37:51.295Z,89.76
2023-01-15T13:40:35.003Z,89.92
2023-01-15T13:43:04.113Z,90.07
2023-01-15T13:45:39.334Z,89.23
2023-01-15T13:48:20.221Z,89.99
2023-01-15T13:50:58.248Z,89.72
2023-01-15T13:53:24.840Z,89.81
2023-01-15T13:55:57.648Z,89.56
2023-01-15T13:58:30.298Z,90.13
2023-01-15T14:01:07.646Z,90.05
2023-01-15T14:03:38.309Z,89.71
2023-01-15T14:06:08.749Z,89.84
2023-01-15T14:08:43.994Z,89.55
2023-01-15T14:11:35.795Z,90.25
2023-01-15T14:14:27.385Z,89.85
2023-01-15T14:17:06.464Z,90.15
2023-01-15T14:20:04.817Z,90.02
2023-01-15T14:23:05.695Z,90.12
2023-01-15T14:26:11.382Z,90.40
2023-01-15T14:28:46.849Z,90.09
2023-01-15T14:31:56.370Z,90.14
2023-01-15T14:34:28.498Z,90.45
2023-01-15T14:37:02.415Z,90.86
2023-01-15T14:39:48.836Z,90.41
2023-01-15T14:42:40.191Z,90.39
2023-01-15T14:45:17.720Z,90.85
2023-01-15T14:47:47.716Z,90.19
2023-01-15T14:50:26.562Z,90.17
2023-01-15T14:52:56.369Z,89.67
2023-01-15T14:55:23.501Z,89.80
2023-01-15T14:58:08.991Z,90.05
2023-01-15T15:00:39.915Z,90.05
2023-01-15T15:03:26.075Z,89.42
2023-01-15T15:05:53.273Z,89.30
2023-01-15T15:08:22.683Z,89.39
2023-01-15T15:10:54.913Z,89.43
2023-01-15T15:13:40.272Z,89.00
2023-01-15T15:16:24.388Z,89.12
2023-01-15T15:19:02.578Z,88.91
2023-01-15T15:21:33.713Z,88.55
2023-01-15T15:24:15.429Z,89.09
2023-01-15T15:26:42.374Z,88.70
2023-01-15T15:29:09.114Z,88.32
2023-01-15T15:31:43.448Z,88.54
2023-01-15T15:34:40.566Z,88.36
2023-01-15T15:37:18.428Z,88.41
2023-01-15T15:39:57.509Z,88.73
2023-01-15T15:43:20.443Z,88.50
2023-01-15T15:46:14.547Z,88.26
2023-01-15T15:48:42.486Z,88.75
2023-01-15T15:51:45.454Z,88.45
2023-01-15T15:54:18.906Z,88.21
2023-01-15T15:56:50.631Z,88.01
2023-01-15T15:59:29.597Z,88.08
2023-01-15T16:01:59.780Z,88.17
2023-01-15T16:04:27.076Z,88.03
2023-01-15T16:06:53.881Z,87.13
2023-01-15T16:09:25.200Z,87.61
2023-01-15T16:11:53.974Z,87.87
2023-01-15T16:14:22.746Z,87.75
2023-01-15T16:16:50.612Z,87.68
2023-01-15T16:19:23.224Z,88.04
2023-01-15T16:21:51.826Z,87.58
2023-01-15T16:24:24.465Z,87.81
2023-01-15T16:27:01.656Z,87.60
2023-01-15T16:29:31.011Z,87.32
2023-01-15T16:32:00.121Z,86.90
2023-01-15T16:34:30.814Z,87.62
2023-01-15T16:36:59.182Z,87.00
2023-01-15T16:39:45.068Z,86.75
2023-01-15T16:42:27.278Z,87.20
2023-01-15T16:44:58.599Z,87.45
2023-01-15T16:47:33.480Z,87.04
2023-01-15T16:50:23.923Z,87.25
2023-01-15T16:52:53.126Z,86.84
2023-01-15T16:55:43.508Z,87.32
2023-01-15T16:58:13.499Z,87.02
2023-01-15T17:00:59.120Z,86.74
2023-01-15T17:03:28.049Z,87.60
2023-01-15T17:06:00.261Z,86.49
2023-01-15T17:08:33.304Z,86.26
2023-01-15T17:11:04.437Z,86.41
2023-01-15T17:13:40.519Z,86.60
2023-01-15T17:16:13.748Z,86.81
2023-01-15T17:18:41.544Z,86.73
2023-01-15T17:21:18.546Z,86.53
2023-01-15T17:23:47.763Z,86.42
2023-01-15T17:26:27.824Z,86.63
2023-01-15T17:28:55.559Z,86.87
2023-01-15T17:31:31.266Z,87.16
2023-01-15T17:34:00.442Z,86.48
2023-01-15T17:36:29.815Z,86.89
2023-01-15T17:38:57.162Z,86.43
2023-01-15T17:41:24.248Z,87.09
2023-01-15T17:43:53.442Z,86.86
2023-01-15T17:46:20.732Z,87.08
2023-01-15T17:48:49.316Z,86.94
2023-01-15T17:51:16.372Z,87.06
2023-01-15T17:53:45.626Z,87.20
2023-01-15T17:56:33.146Z,87.62
2023-01-15T17:59:34.898Z,87.37
2023-01-15T18:02:22.516Z,87.25
2023-01-15T18:05:13.123Z,87.25
2023-01-15T18:07:42.726Z,87.97
2023-01-15T18:10:19.102Z,88.46
2023-01-15T18:12:46.726Z,88.53
2023-01-15T18:15:15.079Z,89.50
2023-01-15T18:17:42.027Z,90.07
2023-01-15T18:20:09.573Z,90.35
2023-01-15T18:22:38.290Z,90.83
2023-01-15T18:25:08.812Z,91.19
2023-01-15T18:27:38.148Z,92.07
2023-01-15T18:30:06.512Z,92.22
2023-01-15T18:32:33.422Z,92.13
2023-01-15T18:35:00.525Z,92.50
2023-01-15T18:37:27.479Z,92.08
2023-01-15T18:39:55.310Z,92.53
2023-01-15T18:42:40.464Z,92.94
2023-01-15T18:45:27.036Z,93.07
2023-01-15T18:47:54.056Z,93.19
2023-01-15T18:50:21.336Z,93.82
2023-01-15T18:52:51.090Z,93.11
2023-01-15T18:55:21.427Z,93.51
2023-01-15T18:57:48.893Z,94.19
2023-01-15T19:00:17.957Z,94.12
2023-01-15T19:02:45.888Z,93.90
2023-01-15T19:05:15.243Z,93.71
2023-01-15T19:07:46.699Z,94.14
2023-01-15T19:10:15.485Z,93.69
2023-01-15T19:12:46.978Z,93.87
2023-01-15T19:15:37.271Z,94.22
2023-01-15T19:18:24.439Z,93.73
2023-01-15T19:21:19.245Z,93.53
2023-01-15T19:24:04.024Z,93.06
2023-01-15T19:26:42.634Z,93.46
2023-01-15T19:29:10.676Z,93.60
2023-01-15T19:31:39.471Z,93.10
2023-01-15T19:34:33.591Z,92.81
2023-01-15T19:36:58.718Z,93.13
2023-01-15T19:39:27.093Z,92.97
2023-01-15T19:42:13.130Z,92.81
2023-01-15T19:44:58.621Z,92.74
2023-01-15T19:47:54.914Z,92.28
2023-01-15T19:50:27.851Z,92.33
2023-01-15T19:52:55.183Z,92.90
2023-01-15T19:55:24.286Z,92.53
2023-01-15T19:58:00.237Z,92.30
2023-01-15T20:00:29.132Z,91.69
2023-01-15T20:03:01.107Z,91.92
2023-01-15T20:05:36.277Z,92.11
2023-01-15T20:08:05.108Z,92.26
2023-01-15T20:10:34.559Z,91.96
2023-01-15T20:13:20.149Z,92.08
2023-01-15T20:15:47.339Z,92.14
2023-01-15T20:18:14.601Z,91.82
2023-01-15T20:20:42.202Z,91.65
2023-01-15T20:23:22.231Z,92.20
2023-01-15T20:25:52.946Z,92.29
2023-01-15T20:28:21.271Z,92.13
2023-01-15T20:30:48.589Z,92.37
2023-01-15T20:33:15.588Z,92.30
2023-01-15T20:36:05.070Z,93.01
2023-01-15T20:41:43.873Z,93.54
2023-01-15T20:44:30.479Z,93.61
2023-01-15T20:46:57.375Z,93.85
2023-01-15T20:49:32.421Z,93.76
2023-01-15T20:52:00.995Z,94.00
2023-01-15T20:54:40.878Z,94.57
2023-01-15T20:57:08.251Z,94.27
2023-01-15T20:59:36.123Z,94.30
2023-01-15T21:02:03.348Z,94.92
2023-01-15T21:04:30.719Z,94.84
2023-01-15T21:06:57.525Z,94.95
2023-01-15T21:09:24.242Z,95.03
2023-01-15T21:11:51.265Z,95.03
2023-01-15T21:14:18.168Z,95.53
2023-01-15T21:16:45.076Z,94.91
2023-01-15T21:19:12.442Z,95.53
2023-01-15T21:21:39.510Z,95.27
2023-01-15T21:24:06.592Z,95.79
2023-01-15T21:26:35.426Z,95.67
2023-01-15T21:29:02.468Z,95.49
2023-01-15T21:31:29.267Z,95.85
2023-01-15T21:33:57.056Z,95.76
2023-01-15T21:36:24.495Z,95.85
2023-01-15T21:38:54.471Z,96.19
2023-01-15T21:41:42.002Z,96.42
2023-01-15T21:44:31.835Z,96.48
2023-01-15T21:47:00.636Z,95.96
2023-01-15T21:49:28.615Z,96.54
2023-01-15T21:51:55.510Z,96.64
2023-01-15T21:54:23.041Z,96.71
2023-01-15T21:56:50.040Z,96.45
2023-01-15T21:59:16.864Z,96.60
2023-01-15T22:01:44.051Z,96.50
2023-01-15T22:04:10.930Z,96.52
2023-01-15T22:06:38.089Z,96.85
2023-01-15T22:09:05.049Z,96.34
2023-01-15T22:11:44.269Z,96.48
2023-01-15T22:14:25.119Z,96.99
2023-01-15T22:16:54.425Z,96.47
2023-01-15T22:19:24.231Z,96.92
2023-01-15T22:21:59.364Z,96.77
2023-01-15T22:24:31.316Z,97.24
2023-01-15T22:26:59.389Z,96.92
2023-01-15T22:29:29.448Z,97.10
2023-01-15T22:31:57.212Z,96.85
2023-01-15T22:34:26.516Z,97.17
2023-01-15T22:36:54.884Z,97.47
2023-01-15T22:39:27.633Z,97.35
2023-01-15T22:42:14.058Z,97.28
2023-01-15T22:44:43.453Z,97.50
2023-01-15T22:47:10.965Z,97.91
2023-01-15T22:49:38.357Z,97.66
2023-01-15T22:52:05.113Z,97.58
2023-01-15T22:54:31.923Z,97.86
2023-01-15T22:56:58.730Z,97.64
2023-01-15T22:59:25.899Z,97.55
2023-01-15T23:01:53.643Z,97.68
2023-01-15T23:04:23.670Z,97.88
2023-01-15T23:06:52.398Z,97.60
2023-01-15T23:09:21.454Z,97.65
2023-01-15T23:11:50.362Z,97.60
2023-01-15T23:14:19.202Z,97.68
2023-01-15T23:16:46.266Z,98.21
2023-01-15T23:19:14.176Z,98.01
2023-01-15T23:21:41.565Z,97.64
2023-01-15T23:24:09.043Z,97.43
2023-01-15T23:26:37.100Z,97.76
2023-01-15T23:29:05.253Z,98.04
2023-01-15T23:31:36.333Z,98.08
2023-01-15T23:34:03.277Z,97.65
2023-01-15T23:36:29.992Z,98.07
2023-01-15T23:38:56.848Z,97.73
2023-01-15T23:41:45.560Z,98.13
2023-01-15T23:44:36.488Z,97.96
2023-01-15T23:47:03.361Z,97.81
2023-01-15T23:49:30.409Z,98.02
2023-01-15T23:51:57.346Z,97.80
2023-01-15T23:54:28.935Z,97.75
2023-01-15T23:56:56.590Z,98.25
2023-01-15T23:59:23.771Z,97.75
